createdAt,value
2018-10-11T00:00:52.666Z,931.30
2018-10-11T00:01:52.647Z,931.32
2018-10-11T00:02:52.650Z,931.28
2018-10-11T00:03:52.692Z,931.29
2018-10-11T00:04:52.688Z,931.28
2018-10-11T00:05:52.809Z,931.26
2018-10-11T00:06:52.702Z,931.22
2018-10-11T00:07:52.720Z,931.24
2018-10-11T00:13:52.831Z,931.32
2018-10-11T00:14:52.812Z,931.33
2018-10-11T00:15:52.940Z,931.34
2018-10-11T00:16:52.878Z,931.33
2018-10-11T00:17:52.880Z,931.37
2018-10-11T00:18:53.039Z,931.40
2018-10-11T00:19:52.967Z,931.35
2018-10-11T00:20:52.906Z,931.37
2018-10-11T00:21:52.944Z,931.38
2018-10-11T00:22:52.946Z,931.31
2018-10-11T00:23:53.062Z,931.31
2018-10-11T00:24:52.984Z,931.30
2018-10-11T00:25:52.990Z,931.31
2018-10-11T00:26:53.012Z,931.28
2018-10-11T00:27:53.020Z,931.28
2018-10-11T00:28:53.147Z,931.24
2018-10-11T00:35:53.130Z,931.33
2018-10-11T00:36:53.192Z,931.32
2018-10-11T00:37:53.156Z,931.35
2018-10-11T00:38:53.214Z,931.37
2018-10-11T00:39:53.188Z,931.36
2018-10-11T00:40:53.212Z,931.36
2018-10-11T00:41:53.233Z,931.32
2018-10-11T00:42:53.277Z,931.34
2018-10-11T00:43:53.406Z,931.32
2018-10-11T00:44:53.268Z,931.31
2018-10-11T00:45:53.295Z,931.31
2018-10-11T00:46:53.298Z,931.36
2018-10-11T00:47:53.324Z,931.34
2018-10-11T00:48:53.424Z,931.36
2018-10-11T00:49:53.364Z,931.37
2018-10-11T00:50:53.354Z,931.33
2018-10-11T00:51:53.371Z,931.36
2018-10-11T01:01:53.525Z,931.57
2018-10-11T01:02:53.573Z,931.59
2018-10-11T01:03:53.648Z,931.59
2018-10-11T01:04:53.557Z,931.59
2018-10-11T01:05:53.570Z,931.61
2018-10-11T01:06:53.604Z,931.66
2018-10-11T01:07:53.614Z,931.69
2018-10-11T01:08:53.732Z,931.68
2018-10-11T01:09:53.675Z,931.71
2018-10-11T01:10:53.670Z,931.73
2018-10-11T01:11:53.676Z,931.74
2018-10-11T01:12:53.696Z,931.73
2018-10-11T01:13:53.822Z,931.70
2018-10-11T01:20:53.811Z,931.75
2018-10-11T01:21:53.813Z,931.78
2018-10-11T01:22:53.835Z,931.78
2018-10-11T01:23:54.036Z,931.83
2018-10-11T01:24:53.873Z,931.82
2018-10-11T01:25:53.871Z,931.83
2018-10-11T01:26:53.885Z,931.82
2018-10-11T01:27:53.975Z,931.82
2018-10-11T01:28:53.934Z,931.84
2018-10-11T01:29:54.093Z,931.83
2018-10-11T01:30:53.996Z,931.85
2018-10-11T01:31:54.015Z,931.85
2018-10-11T01:32:53.978Z,931.86
2018-10-11T01:33:53.997Z,931.85
2018-10-11T01:34:54.163Z,931.86
2018-10-11T01:35:54.026Z,931.85
2018-10-11T01:36:54.042Z,931.86
2018-10-11T01:37:54.064Z,931.90
2018-10-11T01:38:54.129Z,931.89
2018-10-11T01:39:54.242Z,931.93
2018-10-11T01:40:54.105Z,931.94
2018-10-11T01:41:54.125Z,931.94
2018-10-11T01:42:54.127Z,931.91
2018-10-11T01:43:54.165Z,931.94
2018-10-11T01:44:54.315Z,931.98
2018-10-11T01:45:54.171Z,931.94
2018-10-11T01:46:54.187Z,931.92
2018-10-11T01:47:54.212Z,931.92
2018-10-11T01:48:54.218Z,931.89
2018-10-11T01:49:54.289Z,931.91
2018-10-11T01:50:54.259Z,931.88
2018-10-11T01:51:54.257Z,931.85
2018-10-11T01:52:54.284Z,931.88
2018-10-11T01:53:54.304Z,931.90
2018-10-11T01:54:54.423Z,931.86
2018-10-11T01:55:54.307Z,931.86
2018-10-11T01:56:54.447Z,931.86
2018-10-11T01:57:54.355Z,931.89
2018-10-11T01:58:54.364Z,931.89
2018-10-11T01:59:54.451Z,931.91
2018-10-11T02:00:54.401Z,931.89
2018-10-11T02:01:54.401Z,931.92
2018-10-11T02:02:54.470Z,931.90
2018-10-11T02:03:54.434Z,931.90
2018-10-11T02:04:54.554Z,931.93
2018-10-11T02:05:54.504Z,931.93
2018-10-11T02:06:54.513Z,931.93
2018-10-11T02:07:54.493Z,931.90
2018-10-11T02:08:54.501Z,931.96
2018-10-11T02:09:54.577Z,931.97
2018-10-11T02:10:54.548Z,931.99
2018-10-11T02:11:54.700Z,931.95
2018-10-11T02:12:54.572Z,931.96
2018-10-11T02:13:54.592Z,931.96
2018-10-11T02:14:54.639Z,931.95
2018-10-11T02:15:54.625Z,931.95
2018-10-11T02:16:54.702Z,931.99
2018-10-11T02:17:54.656Z,931.97
2018-10-11T02:18:54.671Z,931.99
2018-10-11T02:19:54.668Z,931.98
2018-10-11T02:20:54.690Z,931.95
2018-10-11T02:21:54.802Z,931.98
2018-10-11T02:22:54.716Z,931.99
2018-10-11T02:23:54.745Z,931.99
2018-10-11T02:24:54.753Z,931.99
2018-10-11T02:25:54.747Z,932.04
2018-10-11T02:26:54.917Z,932.00
2018-10-11T02:27:54.800Z,932.04
2018-10-11T02:28:54.827Z,932.02
2018-10-11T02:29:54.872Z,932.04
2018-10-11T02:30:54.819Z,932.07
2018-10-11T02:31:54.941Z,932.02
2018-10-11T02:32:55.071Z,932.04
2018-10-11T02:33:54.894Z,932.03
2018-10-11T02:34:54.903Z,931.94
2018-10-11T02:35:54.928Z,931.96
2018-10-11T02:36:54.936Z,931.94
2018-10-11T02:37:55.002Z,931.96
2018-10-11T02:38:54.970Z,931.98
2018-10-11T02:39:54.978Z,931.96
2018-10-11T02:40:55.153Z,931.99
2018-10-11T02:41:55.039Z,931.99
2018-10-11T02:42:55.041Z,931.99
2018-10-11T02:43:55.055Z,931.95
2018-10-11T02:44:55.065Z,931.99
2018-10-11T02:45:55.114Z,931.98
2018-10-11T02:46:55.068Z,931.99
2018-10-11T02:47:55.084Z,931.97
2018-10-11T02:48:55.272Z,932.00
2018-10-11T02:49:55.104Z,932.01
2018-10-11T02:50:55.134Z,932.03
2018-10-11T02:51:55.146Z,932.00
2018-10-11T02:52:55.155Z,932.04
2018-10-11T02:53:55.339Z,932.00
2018-10-11T02:54:55.193Z,932.01
2018-10-11T02:55:55.361Z,932.03
2018-10-11T02:56:55.214Z,931.98
2018-10-11T02:57:55.307Z,932.00
2018-10-11T02:58:55.442Z,932.02
2018-10-11T02:59:55.256Z,932.04
2018-10-11T03:00:55.287Z,932.05
2018-10-11T03:01:55.316Z,932.04
2018-10-11T03:02:55.319Z,932.02
2018-10-11T03:03:55.435Z,932.05
2018-10-11T03:04:55.334Z,932.09
2018-10-11T03:05:55.355Z,932.02
2018-10-11T03:06:55.371Z,932.08
2018-10-11T03:07:55.393Z,932.07
2018-10-11T03:08:55.456Z,932.08
2018-10-11T03:09:55.438Z,932.12
2018-10-11T03:10:55.478Z,932.11
2018-10-11T03:11:55.499Z,932.14
2018-10-11T03:12:55.466Z,932.13
2018-10-11T03:13:55.475Z,932.13
2018-10-11T03:14:55.513Z,932.13
2018-10-11T03:15:55.557Z,932.10
2018-10-11T03:16:55.575Z,932.12
2018-10-11T03:17:55.532Z,932.10
2018-10-11T03:18:55.538Z,932.09
2018-10-11T03:19:55.558Z,932.04
2018-10-11T03:20:55.741Z,932.03
2018-10-11T03:21:55.608Z,932.02
2018-10-11T03:22:55.617Z,932.02
2018-10-11T03:23:55.681Z,932.01
2018-10-11T03:24:55.654Z,931.95
2018-10-11T03:25:55.755Z,931.95
2018-10-11T03:26:55.687Z,931.94
2018-10-11T03:27:55.696Z,931.89
2018-10-11T03:28:55.701Z,931.89
2018-10-11T03:29:55.723Z,931.83
2018-10-11T03:30:55.798Z,931.78
2018-10-11T03:31:55.778Z,931.80
2018-10-11T03:32:55.871Z,931.80
2018-10-11T03:33:55.776Z,931.80
2018-10-11T03:34:55.784Z,931.78
2018-10-11T03:35:55.809Z,931.78
2018-10-11T03:36:55.829Z,931.75
2018-10-11T03:37:55.991Z,931.78
2018-10-11T03:38:55.851Z,931.73
2018-10-11T03:39:55.876Z,931.74
2018-10-11T03:40:55.873Z,931.71
2018-10-11T03:41:55.927Z,931.67
2018-10-11T03:42:55.967Z,931.68
2018-10-11T03:43:55.931Z,931.66
2018-10-11T03:44:55.950Z,931.66
2018-10-11T03:45:55.967Z,931.61
2018-10-11T03:46:55.981Z,931.59
2018-10-11T03:47:56.150Z,931.53
2018-10-11T03:48:56.016Z,931.54
2018-10-11T03:49:56.013Z,931.55
2018-10-11T03:50:56.051Z,931.52
2018-10-11T03:51:56.056Z,931.52
2018-10-11T03:52:56.114Z,931.45
2018-10-11T03:53:56.241Z,931.44
2018-10-11T03:54:56.082Z,931.45
2018-10-11T03:55:56.116Z,931.40
2018-10-11T03:56:56.127Z,931.41
2018-10-11T03:57:56.155Z,931.40
2018-10-11T03:58:56.245Z,931.43
2018-10-11T03:59:56.167Z,931.43
2018-10-11T04:00:56.198Z,931.41
2018-10-11T04:01:56.213Z,931.43
2018-10-11T04:02:56.227Z,931.41
2018-10-11T04:03:56.378Z,931.40
2018-10-11T04:04:56.250Z,931.40
2018-10-11T04:05:56.249Z,931.38
2018-10-11T04:06:56.287Z,931.40
2018-10-11T04:07:56.294Z,931.40
2018-10-11T04:08:56.375Z,931.38
2018-10-11T04:09:56.324Z,931.41
2018-10-11T04:10:56.479Z,931.44
2018-10-11T04:11:56.334Z,931.43
2018-10-11T04:12:56.380Z,931.42
2018-10-11T04:13:56.374Z,931.43
2018-10-11T04:14:56.384Z,931.45
2018-10-11T04:15:56.452Z,931.42
2018-10-11T04:16:56.426Z,931.46
2018-10-11T04:17:56.441Z,931.41
2018-10-11T04:18:56.460Z,931.44
2018-10-11T04:19:56.633Z,931.43
2018-10-11T04:20:56.467Z,931.43
2018-10-11T04:21:56.492Z,931.41
2018-10-11T04:22:56.517Z,931.45
2018-10-11T04:23:56.524Z,931.45
2018-10-11T04:24:56.590Z,931.41
2018-10-11T04:25:56.714Z,931.46
2018-10-11T04:26:56.560Z,931.43
2018-10-11T04:27:56.572Z,931.44
2018-10-11T04:28:56.605Z,931.46
2018-10-11T04:29:56.657Z,931.40
2018-10-11T04:30:56.682Z,931.44
2018-10-11T04:31:56.645Z,931.42
2018-10-11T04:32:56.658Z,931.40
2018-10-11T04:33:56.857Z,931.39
2018-10-11T04:34:56.691Z,931.38
2018-10-11T04:35:56.748Z,931.38
2018-10-11T04:36:56.722Z,931.36
2018-10-11T04:37:56.735Z,931.36
2018-10-11T04:38:56.776Z,931.30
2018-10-11T04:39:56.889Z,931.33
2018-10-11T04:40:56.763Z,931.33
2018-10-11T04:41:56.788Z,931.32
2018-10-11T04:42:56.910Z,931.30
2018-10-11T04:43:56.827Z,931.32
2018-10-11T04:44:56.865Z,931.29
2018-10-11T04:45:56.845Z,931.33
2018-10-11T04:46:56.999Z,931.34
2018-10-11T04:47:56.880Z,931.36
2018-10-11T04:48:56.893Z,931.34
2018-10-11T04:49:56.898Z,931.35
2018-10-11T04:50:56.904Z,931.38
2018-10-11T04:51:57.092Z,931.34
2018-10-11T04:52:56.934Z,931.34
2018-10-11T04:53:56.952Z,931.29
2018-10-11T04:56:57.154Z,931.29
2018-10-11T04:57:57.017Z,931.25
2018-10-11T04:58:57.035Z,931.21
2018-10-11T04:59:57.095Z,931.27
2018-10-11T05:00:57.055Z,931.23
2018-10-11T05:01:57.224Z,931.24
2018-10-11T05:02:57.080Z,931.26
2018-10-11T05:03:57.105Z,931.27
2018-10-11T05:04:57.123Z,931.24
2018-10-11T05:05:57.112Z,931.29
2018-10-11T05:06:57.295Z,931.25
2018-10-11T05:07:57.200Z,931.30
2018-10-11T05:08:57.173Z,931.31
2018-10-11T05:09:57.185Z,931.33
2018-10-11T05:10:57.217Z,931.33
2018-10-11T05:11:57.351Z,931.31
2018-10-11T05:12:57.225Z,931.31
2018-10-11T05:13:57.256Z,931.32
2018-10-11T05:19:57.350Z,931.32
2018-10-11T05:20:57.392Z,931.32
2018-10-11T05:21:57.403Z,931.35
2018-10-11T05:22:57.380Z,931.35
2018-10-11T05:23:57.376Z,931.31
2018-10-11T05:24:57.408Z,931.32
2018-10-11T05:25:57.470Z,931.33
2018-10-11T05:26:57.583Z,931.32
2018-10-11T05:27:57.446Z,931.33
2018-10-11T05:28:57.457Z,931.31
2018-10-11T05:29:57.476Z,931.33
2018-10-11T05:30:57.477Z,931.30
2018-10-11T05:31:57.645Z,931.28
2018-10-11T05:32:57.525Z,931.26
2018-10-11T05:33:57.529Z,931.25
2018-10-11T05:34:57.557Z,931.23
2018-10-11T05:35:57.566Z,931.20
2018-10-11T05:36:57.730Z,931.19
2018-10-11T05:37:57.602Z,931.17
2018-10-11T05:38:57.595Z,931.17
2018-10-11T05:39:57.623Z,931.10
2018-10-11T05:40:57.631Z,931.10
2018-10-11T05:41:57.698Z,931.03
2018-10-11T05:42:57.803Z,931.04
2018-10-11T05:43:57.684Z,931.02
2018-10-11T05:44:57.701Z,931.04
2018-10-11T05:45:57.709Z,931.00
2018-10-11T05:46:57.736Z,931.03
2018-10-11T05:47:57.876Z,931.00
2018-10-11T05:48:57.811Z,931.00
2018-10-11T05:49:57.776Z,931.01
2018-10-11T05:50:57.827Z,931.00
2018-10-11T05:51:57.809Z,931.01
2018-10-11T05:52:57.964Z,931.02
2018-10-11T05:53:57.824Z,930.96
2018-10-11T05:54:57.831Z,930.95
2018-10-11T05:55:57.865Z,930.93
2018-10-11T05:56:57.874Z,930.91
2018-10-11T05:57:58.045Z,930.91
2018-10-11T05:58:57.893Z,930.90
2018-10-11T05:59:57.925Z,930.89
2018-10-11T06:00:57.941Z,930.93
2018-10-11T06:01:57.943Z,930.93
2018-10-11T06:02:58.098Z,930.92
2018-10-11T06:03:57.969Z,930.94
2018-10-11T06:04:57.985Z,930.90
2018-10-11T06:05:57.990Z,930.88
2018-10-11T06:06:58.010Z,930.89
2018-10-11T06:16:58.139Z,930.77
2018-10-11T06:17:58.170Z,930.77
2018-10-11T06:18:58.181Z,930.74
2018-10-11T06:19:58.303Z,930.71
2018-10-11T06:20:58.266Z,930.72
2018-10-11T06:21:58.238Z,930.73
2018-10-11T06:22:58.292Z,930.70
2018-10-11T06:23:58.247Z,930.68
2018-10-11T06:24:58.578Z,930.68
2018-10-11T06:25:58.285Z,930.69
2018-10-11T06:26:58.310Z,930.65
2018-10-11T06:27:58.321Z,930.70
2018-10-11T06:41:58.562Z,930.75
2018-10-11T06:42:58.513Z,930.74
2018-10-11T06:43:58.552Z,930.72
2018-10-11T06:44:58.664Z,930.78
2018-10-11T06:45:58.580Z,930.77
2018-10-11T06:46:58.577Z,930.77
2018-10-11T06:47:58.591Z,930.79
2018-10-11T06:48:58.612Z,930.75
2018-10-11T06:49:58.938Z,930.74
2018-10-11T06:50:58.641Z,930.73
2018-10-11T06:51:58.653Z,930.74
2018-10-11T06:52:58.658Z,930.74
2018-10-11T06:53:58.695Z,930.77
2018-10-11T06:54:58.852Z,930.72
2018-10-11T06:55:58.734Z,930.72
2018-10-11T06:56:58.733Z,930.73
2018-10-11T06:57:58.760Z,930.72
2018-10-11T06:58:58.746Z,930.73
2018-10-11T06:59:58.820Z,930.72
2018-10-11T07:00:58.802Z,930.75
2018-10-11T07:01:58.892Z,930.76
2018-10-11T07:02:58.837Z,930.74
2018-10-11T07:03:58.838Z,930.69
2018-10-11T07:04:59.024Z,930.75
2018-10-11T07:05:58.888Z,930.74
2018-10-11T07:06:58.873Z,930.75
2018-10-11T07:07:58.904Z,930.79
2018-10-11T07:08:58.909Z,930.79
2018-10-11T07:09:59.069Z,930.76
2018-10-11T07:10:58.957Z,930.77
2018-10-11T07:11:58.946Z,930.75
2018-10-11T07:20:59.101Z,930.87
2018-10-11T07:21:59.104Z,930.89
2018-10-11T07:22:59.149Z,930.91
2018-10-11T07:23:59.121Z,930.89
2018-10-11T07:24:59.294Z,930.84
2018-10-11T07:25:59.233Z,930.86
2018-10-11T07:26:59.178Z,930.87
2018-10-11T07:27:59.189Z,930.86
2018-10-11T07:28:59.210Z,930.85
2018-10-11T07:29:59.363Z,930.88
2018-10-11T07:30:59.232Z,930.88
2018-10-11T07:31:59.261Z,930.91
2018-10-11T07:32:59.259Z,930.91
2018-10-11T07:33:59.282Z,930.93
2018-10-11T07:34:59.578Z,930.92
2018-10-11T07:47:59.464Z,931.08
2018-10-11T07:48:59.635Z,931.10
2018-10-11T07:49:59.544Z,931.10
2018-10-11T07:50:59.540Z,931.14
2018-10-11T07:51:59.563Z,931.14
2018-10-11T07:52:59.677Z,931.18
2018-10-11T07:53:59.710Z,931.16
2018-10-11T07:54:59.591Z,931.17
2018-10-11T07:55:59.575Z,931.18
2018-10-11T07:56:59.612Z,931.15
2018-10-11T07:57:59.607Z,931.14
2018-10-11T07:58:59.798Z,931.16
2018-10-11T07:59:59.640Z,931.16
2018-10-11T08:00:59.791Z,931.16
2018-10-11T08:01:59.665Z,931.17
2018-10-11T08:07:59.766Z,931.21
2018-10-11T08:09:59.794Z,931.20
2018-10-11T08:10:59.867Z,931.18
2018-10-11T08:11:59.988Z,931.27
2018-10-11T08:12:59.830Z,931.24
2018-10-11T08:14:00.015Z,931.30
2018-10-11T08:14:59.853Z,931.34
2018-10-11T08:15:59.937Z,931.33
2018-10-11T08:17:00.058Z,931.30
2018-10-11T08:18:00.297Z,931.31
2018-10-11T08:19:00.236Z,931.33
2018-10-11T08:20:00.057Z,931.32
2018-10-11T08:20:59.955Z,931.32
2018-10-11T08:21:59.979Z,931.34
2018-10-11T08:22:59.993Z,931.31
2018-10-11T08:24:00.116Z,931.30
2018-10-11T08:25:00.178Z,931.35
2018-10-11T08:26:00.389Z,931.38
2018-10-11T08:27:00.046Z,931.39
2018-10-11T08:28:00.058Z,931.38
2018-10-11T08:29:00.243Z,931.39
2018-10-11T08:30:00.102Z,931.43
2018-10-11T08:31:00.098Z,931.42
2018-10-11T08:32:00.139Z,931.44
2018-10-11T08:33:00.179Z,931.47
2018-10-11T08:34:00.291Z,931.46
2018-10-11T08:35:00.172Z,931.49
2018-10-11T08:36:00.163Z,931.47
2018-10-11T08:37:00.243Z,931.47
2018-10-11T08:38:00.376Z,931.52
2018-10-11T08:39:00.387Z,931.51
2018-10-11T08:40:00.277Z,931.53
2018-10-11T08:41:00.309Z,931.54
2018-10-11T08:42:00.276Z,931.57
2018-10-11T08:43:00.289Z,931.60
2018-10-11T08:44:00.532Z,931.60
2018-10-11T08:45:00.319Z,931.64
2018-10-11T08:46:00.327Z,931.65
2018-10-11T08:47:00.331Z,931.67
2018-10-11T08:48:00.340Z,931.69
2018-10-11T08:49:00.549Z,931.72
2018-10-11T08:50:00.383Z,931.74
2018-10-11T08:51:00.490Z,931.72
2018-10-11T08:52:00.417Z,931.73
2018-10-11T08:53:00.418Z,931.75
2018-10-11T08:54:00.546Z,931.74
2018-10-11T08:55:00.459Z,931.78
2018-10-11T08:56:00.553Z,931.74
2018-10-11T08:57:00.490Z,931.80
2018-10-11T08:58:00.548Z,931.82
2018-10-11T08:59:00.715Z,931.78
2018-10-11T09:00:00.513Z,931.83
2018-10-11T09:01:00.541Z,931.81
2018-10-11T09:02:00.561Z,931.81
2018-10-11T09:03:00.568Z,931.83
2018-10-11T09:04:00.863Z,931.90
2018-10-11T09:05:00.603Z,931.83
2018-10-11T09:06:00.618Z,931.89
2018-10-11T09:07:00.645Z,931.92
2018-10-11T09:08:00.637Z,931.92
2018-10-11T09:09:00.802Z,931.85
2018-10-11T09:10:00.690Z,931.96
2018-10-11T09:11:00.782Z,931.91
2018-10-11T09:12:00.703Z,931.96
2018-10-11T09:13:00.720Z,932.01
2018-10-11T09:14:00.731Z,932.03
2018-10-11T09:15:00.782Z,932.01
2018-10-11T09:16:00.762Z,932.05
2018-10-11T09:17:00.782Z,932.05
2018-10-11T09:18:00.775Z,932.06
2018-10-11T09:19:01.007Z,932.05
2018-10-11T09:20:00.814Z,932.07
2018-10-11T09:21:00.836Z,932.13
2018-10-11T09:22:00.852Z,932.13
2018-10-11T09:23:00.907Z,932.14
2018-10-11T09:24:01.011Z,932.12
2018-10-11T09:25:00.873Z,932.15
2018-10-11T09:26:00.885Z,932.14
2018-10-11T09:27:00.930Z,932.18
2018-10-11T09:28:00.933Z,932.23
2018-10-11T09:29:01.043Z,932.19
2018-10-11T09:30:00.977Z,932.23
2018-10-11T09:31:00.964Z,932.26
2018-10-11T09:32:00.972Z,932.27
2018-10-11T09:33:01.004Z,932.35
2018-10-11T09:34:01.189Z,932.38
2018-10-11T09:35:01.027Z,932.36
2018-10-11T09:36:01.061Z,932.39
2018-10-11T09:37:01.117Z,932.39
2018-10-11T09:38:01.119Z,932.44
2018-10-11T09:39:01.245Z,932.45
2018-10-11T09:40:01.094Z,932.47
2018-10-11T09:41:01.123Z,932.50
2018-10-11T09:42:01.140Z,932.47
2018-10-11T09:43:01.263Z,932.52
2018-10-11T09:44:01.322Z,932.53
2018-10-11T09:45:01.193Z,932.52
2018-10-11T09:46:01.170Z,932.55
2018-10-11T09:47:01.205Z,932.58
2018-10-11T09:48:01.244Z,932.60
2018-10-11T09:49:01.398Z,932.59
2018-10-11T09:50:01.249Z,932.63
2018-10-11T09:51:01.256Z,932.65
2018-10-11T09:52:01.289Z,932.70
2018-10-11T09:53:01.278Z,932.70
2018-10-11T09:54:01.447Z,932.74
2018-10-11T09:55:01.309Z,932.74
2018-10-11T09:56:01.507Z,932.76
2018-10-11T09:57:01.336Z,932.74
2018-10-11T09:58:01.378Z,932.74
2018-10-11T10:01:01.403Z,932.83
2018-10-11T10:02:01.445Z,932.84
2018-10-11T10:03:01.425Z,932.82
2018-10-11T10:04:01.594Z,932.83
2018-10-11T10:05:01.484Z,932.83
2018-10-11T10:06:01.494Z,932.86
2018-10-11T10:07:01.497Z,932.85
2018-10-11T10:08:01.493Z,932.88
2018-10-11T10:09:01.703Z,932.91
2018-10-11T10:10:01.657Z,932.88
2018-10-11T10:11:01.534Z,932.90
2018-10-11T10:12:01.559Z,932.94
2018-10-11T10:13:01.588Z,932.95
2018-10-11T10:14:01.747Z,933.00
2018-10-11T10:15:01.614Z,932.96
2018-10-11T10:16:01.628Z,932.99
2018-10-11T10:17:01.639Z,933.01
2018-10-11T10:18:01.716Z,933.05
2018-10-11T10:19:01.830Z,933.06
2018-10-11T10:27:01.873Z,933.18
2018-10-11T10:28:01.797Z,933.15
2018-10-11T10:29:01.971Z,933.15
2018-10-11T10:30:01.820Z,933.18
2018-10-11T10:31:01.850Z,933.15
2018-10-11T10:32:01.860Z,933.20
2018-10-11T10:33:01.869Z,933.17
2018-10-11T10:34:02.148Z,933.17
2018-10-11T10:35:01.893Z,933.16
2018-10-11T10:36:01.927Z,933.22
2018-10-11T10:37:01.932Z,933.25
2018-10-11T10:38:01.944Z,933.18
2018-10-11T10:39:02.109Z,933.21
2018-10-11T10:40:02.117Z,933.23
2018-10-11T10:41:01.965Z,933.27
2018-10-11T10:43:02.016Z,933.26
2018-10-11T10:50:02.106Z,933.41
2018-10-11T10:54:02.330Z,933.46
2018-10-11T10:56:02.204Z,933.47
2018-10-11T10:57:02.256Z,933.47
2018-10-11T11:00:02.257Z,933.46
2018-10-11T11:01:02.274Z,933.52
2018-10-11T11:02:02.291Z,933.54
2018-10-11T11:03:02.309Z,933.52
2018-10-11T11:04:02.460Z,933.53
2018-10-11T11:05:02.318Z,933.56
2018-10-11T11:06:02.331Z,933.53
2018-10-11T11:07:02.352Z,933.57
2018-10-11T11:08:02.397Z,933.53
2018-10-11T11:09:02.454Z,933.59
2018-10-11T11:10:02.385Z,933.59
2018-10-11T11:11:02.440Z,933.59
2018-10-11T11:12:02.631Z,933.58
2018-10-11T11:13:02.468Z,933.62
2018-10-11T11:14:02.474Z,933.62
2018-10-11T11:15:02.467Z,933.65
2018-10-11T11:16:02.487Z,933.72
2018-10-11T11:17:02.647Z,933.71
2018-10-11T11:18:02.538Z,933.65
2018-10-11T11:19:02.617Z,933.71
2018-10-11T11:20:02.576Z,933.71
2018-10-11T11:21:02.582Z,933.70
2018-10-11T11:22:02.732Z,933.72
2018-10-11T11:23:02.591Z,933.71
2018-10-11T11:24:02.617Z,933.73
2018-10-11T11:25:02.637Z,933.76
2018-10-11T11:26:02.648Z,933.77
2018-10-11T11:27:02.831Z,933.78
2018-10-11T11:28:02.681Z,933.81
2018-10-11T11:29:02.702Z,933.79
2018-10-11T11:30:02.710Z,933.80
2018-10-11T11:31:02.765Z,933.84
2018-10-11T11:32:02.882Z,933.80
2018-10-11T11:33:02.771Z,933.85
2018-10-11T11:34:02.755Z,933.86
2018-10-11T11:35:02.787Z,933.85
2018-10-11T11:36:02.798Z,933.86
2018-10-11T11:37:02.962Z,933.86
2018-10-11T11:38:02.853Z,933.87
2018-10-11T11:39:02.867Z,933.88
2018-10-11T11:40:02.903Z,933.87
2018-10-11T11:41:02.879Z,933.86
2018-10-11T11:42:03.034Z,933.88
2018-10-11T11:43:02.920Z,933.91
2018-10-11T11:44:02.913Z,933.90
2018-10-11T11:45:02.949Z,933.96
2018-10-11T11:46:02.967Z,934.00
2018-10-11T11:47:03.124Z,934.00
2018-10-11T11:48:02.986Z,933.97
2018-10-11T11:49:03.054Z,933.99
2018-10-11T11:50:03.033Z,934.02
2018-10-11T11:51:03.025Z,934.03
2018-10-11T11:52:03.172Z,934.07
2018-10-11T11:53:03.121Z,934.05
2018-10-11T11:54:03.072Z,934.07
2018-10-11T11:55:03.098Z,934.04
2018-10-11T11:56:03.109Z,934.14
2018-10-11T11:57:03.158Z,934.08
2018-10-11T11:58:03.208Z,934.09
2018-10-11T11:59:03.162Z,934.07
2018-10-11T12:00:03.176Z,934.11
2018-10-11T12:01:03.184Z,934.15
2018-10-11T12:02:03.404Z,934.10
2018-10-11T12:03:03.220Z,934.13
2018-10-11T12:04:03.222Z,934.16
2018-10-11T12:05:03.324Z,934.14
2018-10-11T12:06:03.274Z,934.19
2018-10-11T12:07:03.458Z,934.19
2018-10-11T12:08:03.283Z,934.19
2018-10-11T12:09:03.319Z,934.20
2018-10-11T12:10:03.343Z,934.24
2018-10-11T12:11:03.493Z,934.23
2018-10-11T12:12:03.510Z,934.23
2018-10-11T12:13:03.355Z,934.22
2018-10-11T12:14:03.391Z,934.22
2018-10-11T12:15:03.397Z,934.23
2018-10-11T12:16:03.408Z,934.25
2018-10-11T12:17:03.621Z,934.27
2018-10-11T12:18:03.459Z,934.27
2018-10-11T12:19:03.470Z,934.26
2018-10-11T12:20:03.530Z,934.23
2018-10-11T12:21:03.499Z,934.27
2018-10-11T12:22:03.599Z,934.25
2018-10-11T12:23:03.534Z,934.22
2018-10-11T12:24:03.534Z,934.28
2018-10-11T12:25:03.543Z,934.26
2018-10-11T12:26:03.710Z,934.28
2018-10-11T12:27:03.578Z,934.34
2018-10-11T12:28:03.607Z,934.34
2018-10-11T12:29:03.705Z,934.37
2018-10-11T12:30:03.626Z,934.33
2018-10-11T12:31:03.708Z,934.40
2018-10-11T12:32:03.652Z,934.35
2018-10-11T12:33:03.685Z,934.35
2018-10-11T12:34:03.785Z,934.41
2018-10-11T12:35:03.728Z,934.36
2018-10-11T12:36:03.745Z,934.37
2018-10-11T12:37:03.744Z,934.41
2018-10-11T12:38:03.745Z,934.39
2018-10-11T12:39:03.860Z,934.41
2018-10-11T12:40:03.790Z,934.45
2018-10-11T12:41:03.795Z,934.46
2018-10-11T12:42:03.818Z,934.41
2018-10-11T12:43:03.849Z,934.46
2018-10-11T12:44:03.906Z,934.44
2018-10-11T12:45:03.905Z,934.48
2018-10-11T12:46:03.872Z,934.48
2018-10-11T12:47:03.902Z,934.54
2018-10-11T12:48:03.924Z,934.48
2018-10-11T12:49:04.104Z,934.49
2018-10-11T12:50:03.992Z,934.50
2018-10-11T12:51:03.980Z,934.48
2018-10-11T12:52:04.049Z,934.48
2018-10-11T12:53:04.000Z,934.53
2018-10-11T12:54:04.109Z,934.51
2018-10-11T12:55:04.135Z,934.54
2018-10-11T12:56:04.056Z,934.51
2018-10-11T12:57:04.194Z,934.46
2018-10-11T12:58:04.097Z,934.47
2018-10-11T12:59:04.256Z,934.50
2018-10-11T13:00:04.127Z,934.51
2018-10-11T13:01:04.296Z,934.48
2018-10-11T13:02:04.139Z,934.48
2018-10-11T13:03:04.256Z,934.50
2018-10-11T13:04:04.328Z,934.52
2018-10-11T13:05:04.198Z,934.55
2018-10-11T13:06:04.212Z,934.51
2018-10-11T13:07:04.224Z,934.54
2018-10-11T13:08:04.248Z,934.50
2018-10-11T13:09:04.604Z,934.52
2018-10-11T13:10:04.292Z,934.51
2018-10-11T13:11:04.297Z,934.53
2018-10-11T13:12:04.307Z,934.53
2018-10-11T13:13:04.538Z,934.51
2018-10-11T13:14:04.541Z,934.53
2018-10-11T13:15:04.360Z,934.52
2018-10-11T13:16:05.093Z,934.56
2018-10-11T13:17:04.403Z,934.56
2018-10-11T13:18:04.407Z,934.55
2018-10-11T13:19:04.531Z,934.54
2018-10-11T13:20:04.463Z,934.52
2018-10-11T13:21:04.464Z,934.55
2018-10-11T13:22:04.473Z,934.50
2018-10-11T13:23:04.502Z,934.52
2018-10-11T13:24:04.670Z,934.52
2018-10-11T13:25:04.523Z,934.50
2018-10-11T13:26:04.528Z,934.50
2018-10-11T13:27:04.564Z,934.55
2018-10-11T13:28:04.574Z,934.53
2018-10-11T13:29:04.817Z,934.48
2018-10-11T13:30:04.596Z,934.47
2018-10-11T13:31:04.621Z,934.44
2018-10-11T13:32:04.631Z,934.48
2018-10-11T13:33:04.662Z,934.49
2018-10-11T13:34:04.722Z,934.55
2018-10-11T13:35:04.783Z,934.52
2018-10-11T13:36:04.680Z,934.55
2018-10-11T13:37:04.739Z,934.50
2018-10-11T13:38:04.785Z,934.49
2018-10-11T13:39:04.738Z,934.46
2018-10-11T13:40:04.783Z,934.50
2018-10-11T13:41:04.782Z,934.49
2018-10-11T13:42:04.791Z,934.53
2018-10-11T13:43:04.920Z,934.48
2018-10-11T13:44:04.827Z,934.46
2018-10-11T13:45:04.828Z,934.46
2018-10-11T13:46:04.869Z,934.44
2018-10-11T13:47:04.914Z,934.38
2018-10-11T13:48:04.974Z,934.41
2018-10-11T13:49:04.923Z,934.43
2018-10-11T13:50:04.981Z,934.44
2018-10-11T13:51:04.936Z,934.42
2018-10-11T13:52:04.967Z,934.47
2018-10-11T13:53:05.147Z,934.46
2018-10-11T13:54:04.979Z,934.37
2018-10-11T13:55:09.646Z,934.44
2018-10-11T13:56:05.008Z,934.41
2018-10-11T13:57:05.113Z,934.38
2018-10-11T13:58:05.142Z,934.40
2018-10-11T13:59:08.645Z,934.35
2018-10-11T14:00:05.096Z,934.37
2018-10-11T14:01:05.090Z,934.32
2018-10-11T14:02:05.141Z,934.33
2018-10-11T14:03:05.233Z,934.38
2018-10-11T14:04:05.142Z,934.33
2018-10-11T14:05:05.167Z,934.35
2018-10-11T14:06:05.186Z,934.39
2018-10-11T14:07:05.196Z,934.38
2018-10-11T14:08:05.257Z,934.33
2018-10-11T14:09:05.222Z,934.37
2018-10-11T14:10:05.411Z,934.37
2018-10-11T14:11:05.257Z,934.33
2018-10-11T14:12:05.286Z,934.33